sensor_id;sensor_type;location;lat;lon;timestamp;P1;durP1;ratioP1;P2;durP2;ratioP2
73695;SDS011;62000;42.262;12.210;2022-07-24T00:00:56;8.45;;;5.85;;
73695;SDS011;62000;42.262;12.210;2022-07-24T00:03:23;9.48;;;5.90;;
73695;SDS011;62000;42.262;12.210;2022-07-24T00:05:51;10.85;;;5.57;;
73695;SDS011;62000;42.262;12.210;2022-07-24T00:08:18;10.93;;;5.78;;
73695;SDS011;62000;42.262;12.210;2022-07-24T00:10:44;9.25;;;5.53;;
73695;SDS011;62000;42.262;12.210;2022-07-24T00:13:13;12.95;;;5.65;;
73695;SDS011;62000;42.262;12.210;2022-07-24T00:15:39;10.95;;;5.70;;
73695;SDS011;62000;42.262;12.210;2022-07-24T00:18:05;9.73;;;6.13;;
73695;SDS011;62000;42.262;12.210;2022-07-24T00:20:31;12.52;;;7.07;;
73695;SDS011;62000;42.262;12.210;2022-07-24T00:22:57;11.95;;;5.78;;
73695;SDS011;62000;42.262;12.210;2022-07-24T00:25:23;14.43;;;6.00;;
73695;SDS011;62000;42.262;12.210;2022-07-24T00:27:49;11.57;;;6.03;;
73695;SDS011;62000;42.262;12.210;2022-07-24T00:30:15;15.80;;;5.82;;
73695;SDS011;62000;42.262;12.210;2022-07-24T00:32:41;10.88;;;6.00;;
73695;SDS011;62000;42.262;12.210;2022-07-24T00:35:07;11.35;;;5.70;;
73695;SDS011;62000;42.262;12.210;2022-07-24T00:37:33;12.38;;;5.90;;
73695;SDS011;62000;42.262;12.210;2022-07-24T00:39:59;13.25;;;6.25;;
73695;SDS011;62000;42.262;12.210;2022-07-24T00:42:25;9.85;;;5.43;;
73695;SDS011;62000;42.262;12.210;2022-07-24T00:44:51;10.27;;;6.22;;
73695;SDS011;62000;42.262;12.210;2022-07-24T00:47:17;11.95;;;5.10;;
73695;SDS011;62000;42.262;12.210;2022-07-24T00:49:43;10.50;;;5.70;;
73695;SDS011;62000;42.262;12.210;2022-07-24T00:52:09;9.18;;;5.80;;
73695;SDS011;62000;42.262;12.210;2022-07-24T00:54:35;10.13;;;5.78;;
73695;SDS011;62000;42.262;12.210;2022-07-24T00:57:01;10.50;;;6.15;;
73695;SDS011;62000;42.262;12.210;2022-07-24T00:59:26;10.85;;;5.68;;
73695;SDS011;62000;42.262;12.210;2022-07-24T01:01:52;9.90;;;4.93;;
73695;SDS011;62000;42.262;12.210;2022-07-24T01:04:19;11.38;;;5.60;;
73695;SDS011;62000;42.262;12.210;2022-07-24T01:06:45;9.88;;;5.10;;
73695;SDS011;62000;42.262;12.210;2022-07-24T01:09:12;10.55;;;5.43;;
73695;SDS011;62000;42.262;12.210;2022-07-24T01:11:40;10.38;;;5.60;;
73695;SDS011;62000;42.262;12.210;2022-07-24T01:14:07;9.32;;;4.88;;
73695;SDS011;62000;42.262;12.210;2022-07-24T01:16:36;10.45;;;5.13;;
73695;SDS011;62000;42.262;12.210;2022-07-24T01:19:02;9.45;;;5.38;;
73695;SDS011;62000;42.262;12.210;2022-07-24T01:21:29;9.20;;;4.97;;
73695;SDS011;62000;42.262;12.210;2022-07-24T01:23:55;9.05;;;4.95;;
73695;SDS011;62000;42.262;12.210;2022-07-24T01:26:21;8.60;;;5.10;;
73695;SDS011;62000;42.262;12.210;2022-07-24T01:28:47;9.45;;;5.38;;
73695;SDS011;62000;42.262;12.210;2022-07-24T01:31:12;9.70;;;5.22;;
73695;SDS011;62000;42.262;12.210;2022-07-24T01:33:38;9.68;;;5.13;;
73695;SDS011;62000;42.262;12.210;2022-07-24T01:36:04;8.60;;;5.05;;
73695;SDS011;62000;42.262;12.210;2022-07-24T01:38:31;11.18;;;5.15;;
73695;SDS011;62000;42.262;12.210;2022-07-24T01:40:57;10.93;;;5.78;;
73695;SDS011;62000;42.262;12.210;2022-07-24T01:43:23;9.80;;;5.45;;
73695;SDS011;62000;42.262;12.210;2022-07-24T01:45:49;11.55;;;5.60;;
73695;SDS011;62000;42.262;12.210;2022-07-24T01:48:14;10.35;;;5.22;;
73695;SDS011;62000;42.262;12.210;2022-07-24T01:50:41;11.15;;;5.47;;
73695;SDS011;62000;42.262;12.210;2022-07-24T01:53:07;10.95;;;5.53;;
73695;SDS011;62000;42.262;12.210;2022-07-24T01:55:33;12.77;;;6.22;;
73695;SDS011;62000;42.262;12.210;2022-07-24T01:57:59;11.05;;;5.07;;
73695;SDS011;62000;42.262;12.210;2022-07-24T02:00:25;10.25;;;5.70;;
73695;SDS011;62000;42.262;12.210;2022-07-24T02:02:51;9.48;;;6.13;;
73695;SDS011;62000;42.262;12.210;2022-07-24T02:05:17;11.00;;;5.97;;
73695;SDS011;62000;42.262;12.210;2022-07-24T02:07:43;9.18;;;5.43;;
73695;SDS011;62000;42.262;12.210;2022-07-24T02:10:11;10.18;;;6.15;;
73695;SDS011;62000;42.262;12.210;2022-07-24T02:12:39;9.35;;;5.28;;
73695;SDS011;62000;42.262;12.210;2022-07-24T02:15:05;9.30;;;5.95;;
73695;SDS011;62000;42.262;12.210;2022-07-24T02:17:31;9.32;;;5.07;;
73695;SDS011;62000;42.262;12.210;2022-07-24T02:22:24;12.45;;;6.75;;
73695;SDS011;62000;42.262;12.210;2022-07-24T02:24:50;9.27;;;5.32;;
73695;SDS011;62000;42.262;12.210;2022-07-24T02:27:16;10.52;;;6.22;;
73695;SDS011;62000;42.262;12.210;2022-07-24T02:29:42;10.60;;;6.30;;
73695;SDS011;62000;42.262;12.210;2022-07-24T02:32:08;9.90;;;6.05;;
73695;SDS011;62000;42.262;12.210;2022-07-24T02:34:34;10.98;;;5.63;;
73695;SDS011;62000;42.262;12.210;2022-07-24T02:36:59;10.82;;;6.82;;
73695;SDS011;62000;42.262;12.210;2022-07-24T02:39:26;11.30;;;6.88;;
73695;SDS011;62000;42.262;12.210;2022-07-24T02:41:52;11.98;;;6.47;;
73695;SDS011;62000;42.262;12.210;2022-07-24T02:44:17;10.82;;;6.30;;
73695;SDS011;62000;42.262;12.210;2022-07-24T02:46:43;10.15;;;5.70;;
73695;SDS011;62000;42.262;12.210;2022-07-24T02:49:09;12.68;;;6.70;;
73695;SDS011;62000;42.262;12.210;2022-07-24T02:51:35;10.98;;;7.55;;
73695;SDS011;62000;42.262;12.210;2022-07-24T02:54:01;11.02;;;6.45;;
73695;SDS011;62000;42.262;12.210;2022-07-24T02:56:27;12.48;;;7.70;;
73695;SDS011;62000;42.262;12.210;2022-07-24T02:58:53;14.77;;;7.90;;
73695;SDS011;62000;42.262;12.210;2022-07-24T03:01:19;11.13;;;7.82;;
73695;SDS011;62000;42.262;12.210;2022-07-24T03:03:45;13.07;;;7.50;;
73695;SDS011;62000;42.262;12.210;2022-07-24T03:06:11;12.15;;;8.32;;
73695;SDS011;62000;42.262;12.210;2022-07-24T03:08:37;13.10;;;8.10;;
73695;SDS011;62000;42.262;12.210;2022-07-24T03:11:03;13.57;;;8.52;;
73695;SDS011;62000;42.262;12.210;2022-07-24T03:13:29;10.02;;;6.20;;
73695;SDS011;62000;42.262;12.210;2022-07-24T03:15:55;10.75;;;6.80;;
73695;SDS011;62000;42.262;12.210;2022-07-24T03:18:21;11.75;;;6.53;;
73695;SDS011;62000;42.262;12.210;2022-07-24T03:20:47;11.88;;;6.80;;
73695;SDS011;62000;42.262;12.210;2022-07-24T03:23:13;13.30;;;6.25;;
73695;SDS011;62000;42.262;12.210;2022-07-24T03:25:39;11.18;;;6.80;;
73695;SDS011;62000;42.262;12.210;2022-07-24T03:28:04;11.18;;;6.68;;
73695;SDS011;62000;42.262;12.210;2022-07-24T03:30:31;11.63;;;7.10;;
73695;SDS011;62000;42.262;12.210;2022-07-24T03:32:57;12.30;;;6.30;;
73695;SDS011;62000;42.262;12.210;2022-07-24T03:35:22;13.38;;;6.95;;
73695;SDS011;62000;42.262;12.210;2022-07-24T03:37:48;12.82;;;6.88;;
73695;SDS011;62000;42.262;12.210;2022-07-24T03:40:14;12.45;;;6.90;;
73695;SDS011;62000;42.262;12.210;2022-07-24T03:42:40;12.45;;;6.20;;
73695;SDS011;62000;42.262;12.210;2022-07-24T03:45:06;11.80;;;6.40;;
73695;SDS011;62000;42.262;12.210;2022-07-24T03:47:33;11.68;;;6.93;;
73695;SDS011;62000;42.262;12.210;2022-07-24T03:49:59;12.68;;;6.57;;
73695;SDS011;62000;42.262;12.210;2022-07-24T03:52:25;13.10;;;6.80;;
73695;SDS011;62000;42.262;12.210;2022-07-24T03:54:51;11.82;;;6.70;;
73695;SDS011;62000;42.262;12.210;2022-07-24T03:57:17;11.32;;;6.55;;
73695;SDS011;62000;42.262;12.210;2022-07-24T03:59:43;11.63;;;6.30;;
73695;SDS011;62000;42.262;12.210;2022-07-24T04:02:09;10.43;;;6.60;;
73695;SDS011;62000;42.262;12.210;2022-07-24T04:04:35;11.70;;;6.15;;
73695;SDS011;62000;42.262;12.210;2022-07-24T04:07:01;14.13;;;6.28;;
73695;SDS011;62000;42.262;12.210;2022-07-24T04:09:27;9.85;;;6.55;;
73695;SDS011;62000;42.262;12.210;2022-07-24T04:11:53;11.35;;;6.60;;
73695;SDS011;62000;42.262;12.210;2022-07-24T04:14:19;10.85;;;6.05;;
73695;SDS011;62000;42.262;12.210;2022-07-24T04:16:45;12.70;;;7.28;;
73695;SDS011;62000;42.262;12.210;2022-07-24T04:19:12;13.82;;;6.70;;
73695;SDS011;62000;42.262;12.210;2022-07-24T04:21:38;11.00;;;6.65;;
73695;SDS011;62000;42.262;12.210;2022-07-24T04:26:31;13.05;;;6.95;;
73695;SDS011;62000;42.262;12.210;2022-07-24T04:28:58;12.90;;;6.78;;
73695;SDS011;62000;42.262;12.210;2022-07-24T04:31:24;13.20;;;7.45;;
73695;SDS011;62000;42.262;12.210;2022-07-24T04:33:51;11.75;;;7.13;;
73695;SDS011;62000;42.262;12.210;2022-07-24T04:36:17;13.27;;;7.20;;
73695;SDS011;62000;42.262;12.210;2022-07-24T04:38:43;11.25;;;6.35;;
73695;SDS011;62000;42.262;12.210;2022-07-24T04:41:09;12.57;;;6.47;;
73695;SDS011;62000;42.262;12.210;2022-07-24T04:43:35;13.13;;;6.43;;
73695;SDS011;62000;42.262;12.210;2022-07-24T04:46:01;10.27;;;5.65;;
73695;SDS011;62000;42.262;12.210;2022-07-24T04:48:27;11.20;;;6.28;;
73695;SDS011;62000;42.262;12.210;2022-07-24T04:50:53;11.27;;;6.50;;
73695;SDS011;62000;42.262;12.210;2022-07-24T04:53:19;10.07;;;6.13;;
73695;SDS011;62000;42.262;12.210;2022-07-24T04:55:45;11.23;;;5.72;;
73695;SDS011;62000;42.262;12.210;2022-07-24T04:58:11;10.93;;;6.30;;
73695;SDS011;62000;42.262;12.210;2022-07-24T05:00:37;12.00;;;6.03;;
73695;SDS011;62000;42.262;12.210;2022-07-24T05:03:03;12.00;;;5.88;;
73695;SDS011;62000;42.262;12.210;2022-07-24T05:05:29;11.10;;;6.50;;
73695;SDS011;62000;42.262;12.210;2022-07-24T05:07:55;8.25;;;5.00;;
73695;SDS011;62000;42.262;12.210;2022-07-24T05:10:21;12.13;;;5.95;;
73695;SDS011;62000;42.262;12.210;2022-07-24T05:12:47;10.23;;;6.63;;
73695;SDS011;62000;42.262;12.210;2022-07-24T05:15:13;9.07;;;6.18;;
73695;SDS011;62000;42.262;12.210;2022-07-24T05:17:39;10.63;;;6.13;;
73695;SDS011;62000;42.262;12.210;2022-07-24T05:20:05;12.35;;;7.07;;
73695;SDS011;62000;42.262;12.210;2022-07-24T05:22:32;13.38;;;8.07;;
73695;SDS011;62000;42.262;12.210;2022-07-24T05:24:58;12.57;;;7.45;;
73695;SDS011;62000;42.262;12.210;2022-07-24T05:27:24;11.40;;;6.68;;
73695;SDS011;62000;42.262;12.210;2022-07-24T05:29:50;11.35;;;6.00;;
73695;SDS011;62000;42.262;12.210;2022-07-24T05:32:16;11.17;;;6.37;;
73695;SDS011;62000;42.262;12.210;2022-07-24T05:34:42;11.65;;;5.82;;
73695;SDS011;62000;42.262;12.210;2022-07-24T05:37:08;11.77;;;6.70;;
73695;SDS011;62000;42.262;12.210;2022-07-24T05:39:34;11.88;;;6.90;;
73695;SDS011;62000;42.262;12.210;2022-07-24T05:42:00;10.10;;;6.28;;
73695;SDS011;62000;42.262;12.210;2022-07-24T05:44:27;11.05;;;6.15;;
73695;SDS011;62000;42.262;12.210;2022-07-24T05:46:53;10.75;;;6.60;;
73695;SDS011;62000;42.262;12.210;2022-07-24T05:49:19;10.70;;;6.43;;
73695;SDS011;62000;42.262;12.210;2022-07-24T05:51:45;12.48;;;7.30;;
73695;SDS011;62000;42.262;12.210;2022-07-24T05:54:11;10.57;;;6.82;;
73695;SDS011;62000;42.262;12.210;2022-07-24T05:56:37;11.30;;;6.88;;
73695;SDS011;62000;42.262;12.210;2022-07-24T05:59:03;12.02;;;6.85;;
73695;SDS011;62000;42.262;12.210;2022-07-24T06:01:29;11.93;;;6.93;;
73695;SDS011;62000;42.262;12.210;2022-07-24T06:03:55;14.65;;;6.47;;
73695;SDS011;62000;42.262;12.210;2022-07-24T06:06:21;11.98;;;6.65;;
73695;SDS011;62000;42.262;12.210;2022-07-24T06:08:47;13.20;;;6.85;;
73695;SDS011;62000;42.262;12.210;2022-07-24T06:11:13;10.45;;;5.97;;
73695;SDS011;62000;42.262;12.210;2022-07-24T06:13:39;11.75;;;6.72;;
73695;SDS011;62000;42.262;12.210;2022-07-24T06:16:05;10.70;;;6.90;;
73695;SDS011;62000;42.262;12.210;2022-07-24T06:18:31;12.00;;;6.47;;
73695;SDS011;62000;42.262;12.210;2022-07-24T06:20:57;11.65;;;6.82;;
73695;SDS011;62000;42.262;12.210;2022-07-24T06:23:23;12.27;;;6.63;;
73695;SDS011;62000;42.262;12.210;2022-07-24T06:25:49;11.50;;;6.28;;
73695;SDS011;62000;42.262;12.210;2022-07-24T06:30:40;11.23;;;6.35;;
73695;SDS011;62000;42.262;12.210;2022-07-24T06:33:06;11.77;;;6.45;;
73695;SDS011;62000;42.262;12.210;2022-07-24T06:35:32;12.75;;;5.70;;
73695;SDS011;62000;42.262;12.210;2022-07-24T06:37:59;11.73;;;6.15;;
73695;SDS011;62000;42.262;12.210;2022-07-24T06:40:25;12.60;;;6.45;;
73695;SDS011;62000;42.262;12.210;2022-07-24T06:42:52;11.43;;;6.05;;
73695;SDS011;62000;42.262;12.210;2022-07-24T06:45:18;9.23;;;5.30;;
73695;SDS011;62000;42.262;12.210;2022-07-24T06:47:44;10.93;;;6.50;;
73695;SDS011;62000;42.262;12.210;2022-07-24T06:50:11;11.32;;;6.75;;
73695;SDS011;62000;42.262;12.210;2022-07-24T06:52:38;12.80;;;6.50;;
73695;SDS011;62000;42.262;12.210;2022-07-24T06:55:04;11.38;;;6.13;;
73695;SDS011;62000;42.262;12.210;2022-07-24T06:57:33;13.93;;;6.30;;
73695;SDS011;62000;42.262;12.210;2022-07-24T06:59:59;9.73;;;6.10;;
73695;SDS011;62000;42.262;12.210;2022-07-24T07:02:25;10.98;;;6.78;;
73695;SDS011;62000;42.262;12.210;2022-07-24T07:04:51;10.80;;;6.35;;
73695;SDS011;62000;42.262;12.210;2022-07-24T07:07:17;11.38;;;6.10;;
73695;SDS011;62000;42.262;12.210;2022-07-24T07:09:43;13.10;;;6.47;;
73695;SDS011;62000;42.262;12.210;2022-07-24T07:12:09;11.20;;;5.82;;
73695;SDS011;62000;42.262;12.210;2022-07-24T07:17:02;11.88;;;5.97;;
73695;SDS011;62000;42.262;12.210;2022-07-24T07:19:29;12.18;;;5.78;;
73695;SDS011;62000;42.262;12.210;2022-07-24T07:21:55;11.40;;;6.22;;
73695;SDS011;62000;42.262;12.210;2022-07-24T07:24:23;11.35;;;5.75;;
73695;SDS011;62000;42.262;12.210;2022-07-24T07:26:49;11.13;;;5.57;;
73695;SDS011;62000;42.262;12.210;2022-07-24T07:29:14;14.00;;;6.35;;
73695;SDS011;62000;42.262;12.210;2022-07-24T07:31:40;12.32;;;6.60;;
73695;SDS011;62000;42.262;12.210;2022-07-24T07:34:06;10.98;;;5.90;;
73695;SDS011;62000;42.262;12.210;2022-07-24T07:36:32;17.02;;;6.30;;
73695;SDS011;62000;42.262;12.210;2022-07-24T07:38:59;13.93;;;5.88;;
73695;SDS011;62000;42.262;12.210;2022-07-24T07:41:25;14.65;;;6.20;;
73695;SDS011;62000;42.262;12.210;2022-07-24T07:43:51;13.00;;;5.45;;
73695;SDS011;62000;42.262;12.210;2022-07-24T07:46:17;15.20;;;5.63;;
73695;SDS011;62000;42.262;12.210;2022-07-24T07:48:43;10.02;;;5.05;;
73695;SDS011;62000;42.262;12.210;2022-07-24T07:51:10;11.18;;;6.05;;
73695;SDS011;62000;42.262;12.210;2022-07-24T07:53:36;10.02;;;5.90;;
73695;SDS011;62000;42.262;12.210;2022-07-24T07:56:02;12.15;;;5.45;;
73695;SDS011;62000;42.262;12.210;2022-07-24T07:58:30;11.70;;;5.65;;
73695;SDS011;62000;42.262;12.210;2022-07-24T08:00:56;11.30;;;5.68;;
73695;SDS011;62000;42.262;12.210;2022-07-24T08:03:22;10.57;;;5.47;;
73695;SDS011;62000;42.262;12.210;2022-07-24T08:05:48;14.35;;;5.82;;
73695;SDS011;62000;42.262;12.210;2022-07-24T08:08:15;11.55;;;5.40;;
73695;SDS011;62000;42.262;12.210;2022-07-24T08:13:07;10.13;;;5.53;;
73695;SDS011;62000;42.262;12.210;2022-07-24T08:15:37;9.02;;;5.38;;
73695;SDS011;62000;42.262;12.210;2022-07-24T08:18:03;9.63;;;5.20;;
73695;SDS011;62000;42.262;12.210;2022-07-24T08:20:30;11.10;;;6.03;;
73695;SDS011;62000;42.262;12.210;2022-07-24T08:25:22;8.75;;;5.40;;
73695;SDS011;62000;42.262;12.210;2022-07-24T08:27:48;10.05;;;5.68;;
73695;SDS011;62000;42.262;12.210;2022-07-24T08:30:17;12.38;;;5.60;;
73695;SDS011;62000;42.262;12.210;2022-07-24T08:32:44;11.90;;;4.90;;
73695;SDS011;62000;42.262;12.210;2022-07-24T08:35:10;9.73;;;5.20;;
73695;SDS011;62000;42.262;12.210;2022-07-24T08:37:37;13.30;;;4.88;;
73695;SDS011;62000;42.262;12.210;2022-07-24T08:40:05;11.18;;;5.55;;
73695;SDS011;62000;42.262;12.210;2022-07-24T08:42:34;9.55;;;4.72;;
73695;SDS011;62000;42.262;12.210;2022-07-24T08:45:02;8.77;;;4.60;;
73695;SDS011;62000;42.262;12.210;2022-07-24T08:47:32;10.82;;;4.82;;
73695;SDS011;62000;42.262;12.210;2022-07-24T08:49:58;11.77;;;5.43;;
73695;SDS011;62000;42.262;12.210;2022-07-24T08:52:27;10.30;;;4.90;;
73695;SDS011;62000;42.262;12.210;2022-07-24T08:54:54;11.07;;;5.00;;
73695;SDS011;62000;42.262;12.210;2022-07-24T08:57:20;10.70;;;5.10;;
73695;SDS011;62000;42.262;12.210;2022-07-24T08:59:46;11.63;;;5.18;;
73695;SDS011;62000;42.262;12.210;2022-07-24T09:02:12;11.93;;;5.13;;
73695;SDS011;62000;42.262;12.210;2022-07-24T09:07:10;9.55;;;4.78;;
73695;SDS011;62000;42.262;12.210;2022-07-24T09:09:39;9.38;;;5.43;;
73695;SDS011;62000;42.262;12.210;2022-07-24T09:14:43;11.50;;;5.05;;
73695;SDS011;62000;42.262;12.210;2022-07-24T09:17:16;8.95;;;4.68;;
73695;SDS011;62000;42.262;12.210;2022-07-24T09:19:58;9.88;;;4.63;;
73695;SDS011;62000;42.262;12.210;2022-07-24T09:25:16;10.52;;;5.22;;
73695;SDS011;62000;42.262;12.210;2022-07-24T09:28:02;7.50;;;4.05;;
73695;SDS011;62000;42.262;12.210;2022-07-24T09:30:42;12.35;;;5.32;;
73695;SDS011;62000;42.262;12.210;2022-07-24T09:35:39;8.75;;;4.40;;
73695;SDS011;62000;42.262;12.210;2022-07-24T09:38:14;10.20;;;4.95;;
73695;SDS011;62000;42.262;12.210;2022-07-24T09:40:44;9.18;;;5.05;;
73695;SDS011;62000;42.262;12.210;2022-07-24T09:43:22;10.30;;;5.13;;
73695;SDS011;62000;42.262;12.210;2022-07-24T09:48:22;10.45;;;4.93;;
73695;SDS011;62000;42.262;12.210;2022-07-24T09:53:42;8.55;;;4.85;;
73695;SDS011;62000;42.262;12.210;2022-07-24T09:56:15;8.50;;;4.80;;
73695;SDS011;62000;42.262;12.210;2022-07-24T10:01:12;13.68;;;5.20;;
73695;SDS011;62000;42.262;12.210;2022-07-24T10:03:42;10.85;;;5.05;;
73695;SDS011;62000;42.262;12.210;2022-07-24T10:06:11;7.07;;;4.57;;
73695;SDS011;62000;42.262;12.210;2022-07-24T10:08:42;9.50;;;4.82;;
73695;SDS011;62000;42.262;12.210;2022-07-24T10:42:27;9.30;;;4.50;;
73695;SDS011;62000;42.262;12.210;2022-07-24T10:47:43;11.80;;;4.75;;
73695;SDS011;62000;42.262;12.210;2022-07-24T10:50:11;9.85;;;5.18;;
73695;SDS011;62000;42.262;12.210;2022-07-24T10:52:39;7.38;;;4.47;;
73695;SDS011;62000;42.262;12.210;2022-07-24T10:55:22;9.48;;;4.80;;
73695;SDS011;62000;42.262;12.210;2022-07-24T11:00:36;8.32;;;4.47;;
73695;SDS011;62000;42.262;12.210;2022-07-24T11:03:29;9.48;;;4.13;;
73695;SDS011;62000;42.262;12.210;2022-07-24T11:06:37;9.63;;;4.75;;
73695;SDS011;62000;42.262;12.210;2022-07-24T11:09:10;9.15;;;4.50;;
73695;SDS011;62000;42.262;12.210;2022-07-24T11:14:23;8.13;;;4.68;;
73695;SDS011;62000;42.262;12.210;2022-07-24T11:20:08;9.77;;;4.07;;
73695;SDS011;62000;42.262;12.210;2022-07-24T11:22:43;8.73;;;4.75;;
73695;SDS011;62000;42.262;12.210;2022-07-24T11:25:19;8.85;;;4.45;;
73695;SDS011;62000;42.262;12.210;2022-07-24T11:30:32;7.57;;;4.57;;
73695;SDS011;62000;42.262;12.210;2022-07-24T11:32:58;10.45;;;4.97;;
73695;SDS011;62000;42.262;12.210;2022-07-24T11:35:32;9.93;;;5.10;;
73695;SDS011;62000;42.262;12.210;2022-07-24T11:38:01;9.73;;;4.20;;
73695;SDS011;62000;42.262;12.210;2022-07-24T11:40:31;9.43;;;4.55;;
73695;SDS011;62000;42.262;12.210;2022-07-24T11:42:59;6.57;;;4.70;;
73695;SDS011;62000;42.262;12.210;2022-07-24T11:48:30;9.68;;;5.05;;
73695;SDS011;62000;42.262;12.210;2022-07-24T11:51:02;9.95;;;4.75;;
73695;SDS011;62000;42.262;12.210;2022-07-24T11:53:30;9.73;;;4.57;;
73695;SDS011;62000;42.262;12.210;2022-07-24T11:56:03;14.00;;;4.45;;
73695;SDS011;62000;42.262;12.210;2022-07-24T11:58:36;12.30;;;4.85;;
73695;SDS011;62000;42.262;12.210;2022-07-24T12:01:17;11.75;;;4.95;;
73695;SDS011;62000;42.262;12.210;2022-07-24T12:06:18;8.98;;;4.03;;
73695;SDS011;62000;42.262;12.210;2022-07-24T12:08:45;10.15;;;5.05;;
73695;SDS011;62000;42.262;12.210;2022-07-24T12:11:11;12.35;;;4.47;;
73695;SDS011;62000;42.262;12.210;2022-07-24T12:13:53;7.90;;;3.80;;
73695;SDS011;62000;42.262;12.210;2022-07-24T12:16:23;8.05;;;4.35;;
73695;SDS011;62000;42.262;12.210;2022-07-24T12:19:14;8.23;;;4.38;;
73695;SDS011;62000;42.262;12.210;2022-07-24T12:21:49;9.68;;;4.75;;
73695;SDS011;62000;42.262;12.210;2022-07-24T12:24:18;10.90;;;4.72;;
73695;SDS011;62000;42.262;12.210;2022-07-24T12:26:57;9.68;;;3.70;;
73695;SDS011;62000;42.262;12.210;2022-07-24T12:29:25;9.60;;;5.22;;
73695;SDS011;62000;42.262;12.210;2022-07-24T12:31:53;9.02;;;4.43;;
73695;SDS011;62000;42.262;12.210;2022-07-24T12:37:14;10.30;;;4.45;;
73695;SDS011;62000;42.262;12.210;2022-07-24T12:39:45;9.02;;;4.38;;
73695;SDS011;62000;42.262;12.210;2022-07-24T12:42:14;7.97;;;3.88;;
73695;SDS011;62000;42.262;12.210;2022-07-24T12:44:42;9.82;;;4.82;;
73695;SDS011;62000;42.262;12.210;2022-07-24T12:47:11;10.55;;;4.72;;
73695;SDS011;62000;42.262;12.210;2022-07-24T12:54:45;9.43;;;4.57;;
73695;SDS011;62000;42.262;12.210;2022-07-24T12:57:13;10.75;;;5.15;;
73695;SDS011;62000;42.262;12.210;2022-07-24T12:59:41;9.80;;;3.88;;
